Time;durP1;ratioP1;P1;durP2;ratioP2;P2;SDS_P1;SDS_P2;PMS_P1;PMS_P2;Temp;Humidity;BMP_temperature;BMP_pressure;BME280_temperature;BME280_humidity;BME280_pressure;Samples;Min_cycle;Max_cycle;Signal;HPM_P1;HPM_P2
2022/11/12 00:01:53;;;;;;;23.40;14.98;;;;;;;4.90;100.00;153766.25;5004255;28;20033;-73
2022/11/12 00:04:37;;;;;;;19.70;13.02;;;;;;;4.93;100.00;153773.88;5007177;28;20038;-72
2022/11/12 00:07:21;;;;;;;21.92;13.70;;;;;;;4.90;100.00;153766.25;5005239;28;20046;-73
2022/11/12 00:10:06;;;;;;;20.08;12.60;;;;;;;4.93;100.00;153772.63;5004851;28;20045;-73
2022/11/12 00:12:51;;;;;;;23.70;13.38;;;;;;;4.90;100.00;153766.25;5006332;28;20040;-72
2022/11/12 00:15:35;;;;;;;23.85;16.25;;;;;;;5.06;100.00;153807.09;5002776;28;20064;-72
2022/11/12 00:18:19;;;;;;;28.23;16.65;;;;;;;5.24;100.00;153850.59;5004930;28;20483;-71
2022/11/12 00:21:04;;;;;;;25.90;15.13;;;;;;;5.32;100.00;153871.06;5005089;28;20049;-73
2022/11/12 00:23:48;;;;;;;22.65;16.35;;;;;;;5.39;100.00;153888.94;5002603;28;20040;-73
2022/11/12 00:26:32;;;;;;;26.52;17.45;;;;;;;5.47;100.00;153909.41;4983460;28;20755;-73
2022/11/12 00:29:16;;;;;;;23.80;16.55;;;;;;;5.57;100.00;153933.69;5005115;28;20059;-73
2022/11/12 00:32:00;;;;;;;25.02;16.00;;;;;;;5.62;100.00;153946.47;4986298;28;20034;-73
2022/11/12 00:34:45;;;;;;;24.95;16.65;;;;;;;5.72;100.00;153969.50;5005436;28;20115;-73
2022/11/12 00:37:29;;;;;;;25.10;16.92;;;;;;;5.77;100.00;153982.31;5005608;28;20041;-73
2022/11/12 00:40:14;;;;;;;25.77;16.40;;;;;;;5.84;100.00;154001.47;5007169;28;20520;-72
2022/11/12 00:42:58;;;;;;;23.05;15.70;;;;;;;5.87;100.00;154006.59;4991896;28;20042;-72
2022/11/12 00:45:42;;;;;;;21.75;15.45;;;;;;;5.89;100.00;154012.97;5014502;28;20140;-71
2022/11/12 00:48:27;;;;;;;24.80;16.33;;;;;;;5.96;100.00;154030.94;5008644;28;20034;-73
2022/11/12 00:51:11;;;;;;;25.55;16.02;;;;;;;6.00;100.00;154041.16;5009487;28;20038;-73
2022/11/12 00:53:55;;;;;;;24.98;17.15;;;;;;;6.06;100.00;154055.22;5007776;28;20065;-73
2022/11/12 00:56:40;;;;;;;24.77;17.52;;;;;;;6.09;100.00;154061.66;5005322;28;20124;-73
2022/11/12 00:59:24;;;;;;;24.27;16.50;;;;;;;6.12;100.00;154070.63;4993004;28;20037;-73
2022/11/12 01:02:08;;;;;;;27.42;17.10;;;;;;;6.17;100.00;154082.09;5007343;28;20124;-73
2022/11/12 01:04:52;;;;;;;27.33;16.83;;;;;;;6.20;100.00;154089.78;5006091;28;20061;-73
2022/11/12 01:07:36;;;;;;;28.88;16.98;;;;;;;6.22;100.00;154094.91;5007083;28;20034;-73
2022/11/12 01:10:21;;;;;;;31.13;17.85;;;;;;;6.26;100.00;154103.88;4999131;28;20046;-72
2022/11/12 01:13:05;;;;;;;27.50;17.45;;;;;;;6.32;100.00;154119.22;4992135;28;20094;-71
2022/11/12 01:15:49;;;;;;;28.25;16.73;;;;;;;6.36;100.00;154130.69;5004735;28;20038;-73
2022/11/12 01:18:33;;;;;;;25.25;16.48;;;;;;;6.53;100.00;154171.66;5007809;28;20030;-73
2022/11/12 01:21:17;;;;;;;27.65;16.65;;;;;;;6.54;100.00;154174.25;5005323;28;20385;-73
2022/11/12 01:24:02;;;;;;;26.42;16.55;;;;;;;6.52;100.00;154170.38;4987818;28;20022;-73
2022/11/12 01:26:47;;;;;;;30.80;17.15;;;;;;;6.51;100.00;154167.81;5001232;28;20072;-75
2022/11/12 01:29:31;;;;;;;26.02;17.35;;;;;;;6.55;100.00;154178.03;5001651;28;20034;-74
2022/11/12 01:32:16;;;;;;;23.02;15.95;;;;;;;6.55;100.00;154176.78;5005734;28;20495;-73
2022/11/12 01:35:00;;;;;;;26.27;16.67;;;;;;;6.62;100.00;154194.69;5021087;28;20034;-74
2022/11/12 01:37:44;;;;;;;21.38;15.35;;;;;;;6.63;100.00;154198.53;5004012;28;20031;-74
2022/11/12 01:40:28;;;;;;;26.38;15.40;;;;;;;6.60;100.00;154189.59;5013046;28;20038;-74
2022/11/12 01:43:12;;;;;;;24.70;15.52;;;;;;;6.58;100.00;154185.72;4993387;28;20403;-73
2022/11/12 01:45:59;;;;;;;20.85;14.25;;;;;;;6.57;100.00;154181.88;4994673;28;20144;-73
2022/11/12 01:48:58;;;;;;;25.38;16.10;;;;;;;6.53;100.00;154172.94;5001623;28;20084;-73
2022/11/12 01:51:48;;;;;;;24.60;15.30;;;;;;;6.53;100.00;154172.94;5015527;28;20050;-73
2022/11/12 01:54:33;;;;;;;23.35;15.05;;;;;;;6.51;100.00;154167.81;4999111;28;20037;-73
2022/11/12 01:57:23;;;;;;;21.60;14.65;;;;;;;6.46;100.00;154155.06;5007754;28;20033;-71
2022/11/12 02:00:11;;;;;;;18.70;13.73;;;;;;;6.51;100.00;154167.81;5007451;28;20399;-73
2022/11/12 02:02:59;;;;;;;18.50;13.90;;;;;;;6.49;100.00;154162.69;4993772;28;20180;-73
2022/11/12 02:05:47;;;;;;;19.52;13.30;;;;;;;6.51;100.00;154166.53;5008317;28;20029;-74
2022/11/12 02:08:32;;;;;;;19.52;14.27;;;;;;;6.47;100.00;154156.31;4992710;28;20503;-75
2022/11/12 02:11:20;;;;;;;21.27;14.38;;;;;;;6.41;100.00;154143.50;4998946;28;20046;-73
2022/11/12 02:14:05;;;;;;;19.08;13.80;;;;;;;6.39;100.00;154137.13;5004568;28;20033;-72
2022/11/12 02:16:49;;;;;;;20.50;13.80;;;;;;;6.39;100.00;154137.13;5007404;28;20129;-74
2022/11/12 02:19:36;;;;;;;20.25;13.40;;;;;;;6.40;100.00;154139.66;5001443;28;20502;-73
2022/11/12 02:22:20;;;;;;;18.83;14.07;;;;;;;6.42;100.00;154144.78;5006448;28;20499;-73
2022/11/12 02:25:05;;;;;;;19.67;13.82;;;;;;;6.39;100.00;154138.41;5005301;28;20121;-73
2022/11/12 02:27:53;;;;;;;19.25;12.75;;;;;;;6.37;100.00;154132.03;5005891;28;20041;-72
2022/11/12 02:30:44;;;;;;;17.88;12.77;;;;;;;6.34;100.00;154125.59;5000310;28;20029;-74
2022/11/12 02:33:28;;;;;;;17.45;12.55;;;;;;;6.33;100.00;154121.75;5003200;28;20034;-73
2022/11/12 02:36:13;;;;;;;15.80;11.23;;;;;;;6.24;100.00;154101.28;4988912;28;20474;-72
2022/11/12 02:38:57;;;;;;;16.48;11.85;;;;;;;6.30;100.00;154114.09;5005981;28;20435;-72
2022/11/12 02:41:42;;;;;;;19.38;12.55;;;;;;;6.27;100.00;154106.41;5005601;28;20034;-73
2022/11/12 02:44:26;;;;;;;17.67;12.20;;;;;;;6.26;100.00;154103.88;5004505;28;20414;-73
2022/11/12 02:47:10;;;;;;;18.42;12.45;;;;;;;6.29;100.00;154112.84;4991277;28;20117;-73
2022/11/12 02:49:54;;;;;;;19.52;12.32;;;;;;;6.30;100.00;154115.38;4995266;28;20045;-74
2022/11/12 02:52:39;;;;;;;19.20;12.98;;;;;;;6.30;100.00;154115.38;5009918;28;20041;-74
2022/11/12 02:55:23;;;;;;;19.08;12.35;;;;;;;6.29;100.00;154111.50;5004712;28;20582;-72
2022/11/12 02:58:07;;;;;;;18.45;12.82;;;;;;;6.32;100.00;154119.22;5004557;28;20030;-73
2022/11/12 03:00:53;;;;;;;19.02;13.00;;;;;;;6.33;100.00;154121.75;5010917;28;20037;-74
2022/11/12 03:03:37;;;;;;;19.80;13.52;;;;;;;6.33;100.00;154123.06;5003976;28;20038;-74
2022/11/12 03:06:22;;;;;;;18.17;13.15;;;;;;;6.36;100.00;154129.44;5007016;28;20045;-73
2022/11/12 03:09:06;;;;;;;20.92;13.88;;;;;;;6.32;100.00;154119.22;4995378;28;20080;-73
2022/11/12 03:11:50;;;;;;;19.80;13.43;;;;;;;6.28;100.00;154110.25;5006007;28;20117;-73
2022/11/12 03:14:34;;;;;;;20.10;13.93;;;;;;;6.31;100.00;154116.63;5006239;28;20029;-72
2022/11/12 03:17:18;;;;;;;20.23;13.93;;;;;;;6.27;100.00;154106.41;4994807;28;20029;-73
2022/11/12 03:20:02;;;;;;;17.10;13.77;;;;;;;6.18;100.00;154085.94;4990204;28;20515;-73
2022/11/12 03:22:58;;;;;;;20.45;14.60;;;;;;;6.15;100.00;154078.25;5008915;28;20038;-72
2022/11/12 03:25:42;;;;;;;16.98;13.15;;;;;;;5.99;100.00;154037.31;5004073;28;20105;-72
2022/11/12 03:28:26;;;;;;;20.00;14.30;;;;;;;5.88;100.00;154010.44;5009004;28;20026;-73
2022/11/12 03:31:10;;;;;;;26.27;14.30;;;;;;;5.79;100.00;153987.41;4985141;28;20128;-74
2022/11/12 03:33:54;;;;;;;21.08;14.68;;;;;;;5.61;100.00;153943.94;5010371;28;20034;-75
2022/11/12 03:36:39;;;;;;;24.30;15.35;;;;;;;5.47;100.00;153909.41;5008254;28;20034;-73
2022/11/12 03:39:23;;;;;;;24.38;16.77;;;;;;;5.46;100.00;153905.53;5008127;28;20483;-73
2022/11/12 03:42:08;;;;;;;21.70;16.02;;;;;;;5.38;100.00;153885.09;5008693;28;20044;-73
2022/11/12 03:44:52;;;;;;;21.08;16.42;;;;;;;5.35;100.00;153878.75;5007776;28;20046;-71
2022/11/12 03:47:40;;;;;;;27.50;16.67;;;;;;;5.17;100.00;153832.69;4994212;28;20507;-73
2022/11/12 03:50:28;;;;;;;23.13;15.95;;;;;;;5.17;100.00;153832.69;4994812;28;20491;-73
2022/11/12 03:53:12;;;;;;;21.15;16.58;;;;;;;5.09;100.00;153812.28;4994158;28;20057;-73
2022/11/12 03:55:56;;;;;;;27.48;16.15;;;;;;;5.01;100.00;153794.38;5005204;28;20042;-71
2022/11/12 03:58:40;;;;;;;24.40;17.25;;;;;;;4.99;100.00;153789.25;5003246;28;20081;-72
2022/11/12 04:01:25;;;;;;;24.63;17.08;;;;;;;5.03;100.00;153799.47;5021049;28;20045;-73
2022/11/12 04:04:09;;;;;;;25.75;17.25;;;;;;;5.03;100.00;153798.22;5006734;28;20420;-72
2022/11/12 04:09:56;;;;;;;25.88;15.98;;;;;;;4.85;100.00;153754.72;5008722;28;20033;-73
2022/11/12 04:15:43;;;;;;;;;;;;;;;4.79;100.00;153738.13;5011730;28;20038;-71
2022/11/12 04:21:55;;;;;;;23.77;16.92;;;;;;;4.74;100.00;153725.34;5009195;28;20025;-73
2022/11/12 04:27:44;;;;;;;25.95;17.85;;;;;;;4.77;100.00;153734.28;5002837;28;20022;-72
2022/11/12 04:30:28;;;;;;;26.60;18.48;;;;;;;4.72;100.00;153720.22;5007612;28;20038;-71
2022/11/12 04:33:12;;;;;;;24.30;16.65;;;;;;;4.65;100.00;153704.91;5008136;28;20057;-73
2022/11/12 04:35:56;;;;;;;28.40;18.50;;;;;;;4.63;100.00;153699.81;5007796;28;20038;-73
2022/11/12 04:38:41;;;;;;;26.55;17.77;;;;;;;4.56;100.00;153680.59;5008253;28;20387;-74
2022/11/12 04:47:37;;;;;;;24.77;18.15;;;;;;;4.35;100.00;153628.22;5006372;28;20027;-73
2022/11/12 04:50:21;;;;;;;26.25;17.48;;;;;;;4.25;100.00;153603.94;4997581;28;20629;-73
2022/11/12 04:53:06;;;;;;;27.60;17.38;;;;;;;4.13;100.00;153574.56;5007199;28;20053;-74
2022/11/12 04:55:55;;;;;;;24.73;15.88;;;;;;;4.00;100.00;153542.63;5005732;28;20030;-73
2022/11/12 04:58:39;;;;;;;28.02;18.92;;;;;;;3.95;100.00;153529.84;5009519;28;20030;-72
2022/11/12 05:01:23;;;;;;;25.70;17.92;;;;;;;3.84;100.00;153501.75;5006563;28;20033;-73
2022/11/12 05:04:08;;;;;;;23.70;16.85;;;;;;;3.80;100.00;153491.53;5002822;28;20125;-73
2022/11/12 05:06:54;;;;;;;25.23;17.52;;;;;;;3.82;100.00;153497.91;5009645;28;20528;-73
2022/11/12 05:09:39;;;;;;;25.20;17.67;;;;;;;3.76;100.00;153482.59;5005592;28;20042;-73
2022/11/12 05:12:24;;;;;;;29.02;17.30;;;;;;;3.67;100.00;153460.91;5004794;28;20072;-71
2022/11/12 05:15:10;;;;;;;21.77;16.60;;;;;;;3.67;100.00;153460.91;5005489;28;20124;-72
2022/11/12 05:17:55;;;;;;;23.90;18.38;;;;;;;3.65;100.00;153455.75;5005159;28;20030;-74
2022/11/12 05:20:39;;;;;;;32.03;19.63;;;;;;;3.60;100.00;153441.72;5004178;28;20064;-74
2022/11/12 05:23:23;;;;;;;24.73;18.20;;;;;;;3.52;100.00;153422.56;5007923;28;20458;-73
2022/11/12 05:26:08;;;;;;;27.75;17.73;;;;;;;3.54;100.00;153426.41;5008523;28;20038;-72
2022/11/12 05:28:55;;;;;;;30.65;19.50;;;;;;;3.44;100.00;153402.16;5001681;28;20455;-72
2022/11/12 05:31:39;;;;;;;29.23;19.08;;;;;;;3.31;100.00;153371.53;5000774;28;20041;-74
2022/11/12 05:34:23;;;;;;;35.55;19.20;;;;;;;3.23;100.00;153349.81;5004602;28;20038;-73
2022/11/12 05:37:09;;;;;;;28.38;18.35;;;;;;;3.22;100.00;153348.56;5005256;28;20376;-74
2022/11/12 05:39:53;;;;;;;28.15;18.83;;;;;;;3.18;100.00;153337.03;4992720;28;20045;-73
2022/11/12 05:42:37;;;;;;;25.60;18.52;;;;;;;3.15;100.00;153329.41;4999599;28;20117;-73
2022/11/12 05:45:22;;;;;;;29.05;17.70;;;;;;;3.08;100.00;153312.78;5006790;28;20037;-73
2022/11/12 05:48:06;;;;;;;27.05;18.45;;;;;;;3.04;100.00;153302.59;5010346;28;20041;-72
2022/11/12 05:50:52;;;;;;;27.25;18.63;;;;;;;3.04;100.00;153303.84;4986172;28;20105;-73
2022/11/12 05:53:36;;;;;;;28.90;19.30;;;;;;;3.05;100.00;153305.13;5001394;28;20192;-73
2022/11/12 05:56:20;;;;;;;33.10;19.67;;;;;;;3.04;100.00;153303.84;5008455;28;20045;-73
2022/11/12 05:59:07;;;;;;;27.67;18.05;;;;;;;3.05;100.00;153306.44;5009569;28;20037;-74
2022/11/12 06:01:51;;;;;;;25.75;18.65;;;;;;;3.04;100.00;153303.84;5003534;28;20399;-73
2022/11/12 06:04:36;;;;;;;25.75;18.42;;;;;;;3.05;100.00;153306.44;5004240;28;20038;-73
2022/11/12 06:07:19;;;;;;;28.45;19.02;;;;;;;3.06;100.00;153307.69;5004823;28;20511;-74
2022/11/12 06:10:04;;;;;;;29.40;19.48;;;;;;;3.03;100.00;153301.34;4994105;28;20041;-73
2022/11/12 06:12:48;;;;;;;30.40;21.77;;;;;;;3.18;100.00;153337.03;5023072;28;20482;-73
2022/11/12 06:15:33;;;;;;;30.80;20.25;;;;;;;3.26;100.00;153358.75;5010732;28;20026;-72
2022/11/12 06:18:17;;;;;;;29.40;20.13;;;;;;;3.38;100.00;153386.84;5005111;28;20061;-72
2022/11/12 06:21:21;;;;;;;34.83;21.92;;;;;;;3.35;100.00;153379.19;5008064;28;20026;-73
2022/11/12 06:24:05;;;;;;;35.45;22.20;;;;;;;3.27;100.00;153361.28;5002192;28;20038;-73
2022/11/12 06:26:50;;;;;;;30.42;19.33;;;;;;;3.24;100.00;153352.34;5008389;28;20486;-73
2022/11/12 06:29:34;;;;;;;23.50;17.73;;;;;;;3.20;100.00;153342.16;5002955;28;20038;-73
2022/11/12 06:32:18;;;;;;;29.35;18.95;;;;;;;3.19;100.00;153339.63;5006107;28;20069;-73
2022/11/12 06:35:03;;;;;;;28.73;19.00;;;;;;;3.14;100.00;153326.84;5000888;28;20030;-74
2022/11/12 06:37:48;;;;;;;27.95;19.58;;;;;;;3.19;100.00;153340.88;5005992;28;20038;-73
2022/11/12 06:40:33;;;;;;;32.33;20.95;;;;;;;3.22;100.00;153348.56;5019679;28;20112;-73
2022/11/12 06:43:17;;;;;;;30.20;19.10;;;;;;;3.14;100.00;153326.84;5005169;28;20038;-75
2022/11/12 06:46:15;;;;;;;24.50;17.70;;;;;;;3.11;100.00;153320.47;5006614;28;20033;-72
2022/11/12 06:48:59;;;;;;;26.98;17.85;;;;;;;3.11;100.00;153320.47;4986347;28;20038;-75
2022/11/12 06:51:44;;;;;;;28.70;17.42;;;;;;;3.10;100.00;153319.16;5006708;28;20037;-75
2022/11/12 06:54:28;;;;;;;25.52;17.00;;;;;;;3.08;100.00;153314.06;5005729;28;20424;-73
2022/11/12 06:57:12;;;;;;;23.13;17.38;;;;;;;3.14;100.00;153328.09;5005936;28;20045;-71
2022/11/12 06:59:56;;;;;;;26.73;17.58;;;;;;;3.19;100.00;153339.63;5002684;28;20074;-72
2022/11/12 07:02:41;;;;;;;27.00;17.98;;;;;;;3.22;100.00;153348.56;5008644;28;20030;-72
2022/11/12 07:05:25;;;;;;;27.13;18.52;;;;;;;3.26;100.00;153357.50;4995754;28;20057;-73
2022/11/12 07:08:10;;;;;;;31.08;19.25;;;;;;;3.30;100.00;153367.72;5005497;28;20037;-73
2022/11/12 07:10:56;;;;;;;25.02;18.70;;;;;;;3.28;100.00;153363.88;5003679;28;20046;-72
2022/11/12 07:13:40;;;;;;;28.20;17.00;;;;;;;3.26;100.00;153357.50;5000747;28;20038;-73
2022/11/12 07:16:24;;;;;;;24.08;16.23;;;;;;;3.31;100.00;153370.22;5004032;28;20033;-72
2022/11/12 07:19:08;;;;;;;31.63;18.73;;;;;;;3.40;100.00;153393.22;5004209;28;20049;-74
2022/11/12 07:21:53;;;;;;;26.38;17.90;;;;;;;3.43;100.00;153399.63;5007315;28;20041;-74
2022/11/12 07:24:37;;;;;;;23.25;15.93;;;;;;;3.37;100.00;153385.59;5004855;28;20690;-71
2022/11/12 07:27:21;;;;;;;26.88;17.15;;;;;;;3.44;100.00;153403.41;4996721;28;20140;-72
2022/11/12 07:30:07;;;;;;;30.25;16.95;;;;;;;3.43;100.00;153399.63;5004464;28;20042;-73
2022/11/12 07:32:51;;;;;;;30.70;17.35;;;;;;;3.34;100.00;153377.91;5006396;28;20395;-73
2022/11/12 07:35:35;;;;;;;25.42;15.85;;;;;;;3.24;100.00;153353.66;5008351;28;20156;-74
2022/11/12 07:38:20;;;;;;;23.70;16.08;;;;;;;3.17;100.00;153334.53;5009447;28;20030;-72
2022/11/12 07:41:05;;;;;;;21.88;15.80;;;;;;;3.20;100.00;153343.47;5007193;28;20029;-73
2022/11/12 07:43:51;;;;;;;23.35;15.00;;;;;;;3.29;100.00;153365.13;4987798;28;20407;-74
2022/11/12 07:46:35;;;;;;;26.05;16.55;;;;;;;3.42;100.00;153398.31;4998866;28;20029;-74
2022/11/12 07:49:19;;;;;;;24.50;16.15;;;;;;;3.55;100.00;153430.25;5007361;28;20033;-74
2022/11/12 07:52:04;;;;;;;21.25;15.40;;;;;;;3.67;100.00;153459.59;5009146;28;20057;-73
2022/11/12 07:54:48;;;;;;;24.02;16.88;;;;;;;3.71;100.00;153469.81;5008237;28;20034;-74
2022/11/12 07:57:32;;;;;;;21.05;15.13;;;;;;;3.84;100.00;153503.06;4984757;28;20030;-74
2022/11/12 08:00:17;;;;;;;25.38;15.75;;;;;;;4.03;100.00;153550.31;5005440;28;20196;-73
2022/11/12 08:03:01;;;;;;;26.00;16.15;;;;;;;4.15;100.00;153578.41;5009830;28;20108;-72
2022/11/12 08:05:46;;;;;;;21.02;15.18;;;;;;;4.21;100.00;153595.00;4995118;28;20306;-72
2022/11/12 08:08:30;;;;;;;21.88;14.77;;;;;;;4.23;100.00;153598.84;4994256;28;20038;-74
2022/11/12 08:11:15;;;;;;;20.60;14.27;;;;;;;4.38;100.00;153635.91;5008902;28;20033;-72
2022/11/12 08:14:00;;;;;;;22.40;14.27;;;;;;;4.53;100.00;153672.94;5005898;28;20523;-71
2022/11/12 08:16:45;;;;;;;17.27;13.30;;;;;;;4.64;100.00;153701.06;5006681;28;20048;-73
2022/11/12 08:19:29;;;;;;;21.73;13.57;;;;;;;4.70;100.00;153715.13;5006777;28;20033;-72
2022/11/12 08:22:14;;;;;;;20.15;13.32;;;;;;;4.75;100.00;153729.19;5004992;28;20393;-72
2022/11/12 08:24:58;;;;;;;19.83;13.60;;;;;;;4.85;100.00;153753.44;5003654;28;20034;-71
2022/11/12 08:27:42;;;;;;;16.38;11.65;;;;;;;5.02;100.00;153795.63;5003122;28;20030;-72
2022/11/12 08:30:28;;;;;;;19.15;11.65;;;;;;;5.18;100.00;153835.22;4994809;28;20081;-72
2022/11/12 08:33:13;;;;;;;19.23;11.35;;;;;;;5.16;100.00;153830.13;5007371;28;20349;-72
2022/11/12 08:35:57;;;;;;;20.88;11.45;;;;;;;5.22;100.00;153846.75;5001374;28;20039;-73
2022/11/12 08:38:43;;;;;;;16.55;11.15;;;;;;;5.35;100.00;153877.44;5011666;28;20033;-73
2022/11/12 08:41:27;;;;;;;15.27;11.27;;;;;;;5.39;100.00;153887.69;5005342;28;20033;-73
2022/11/12 08:44:11;;;;;;;15.23;10.38;;;;;;;5.49;100.00;153911.97;5005187;28;20042;-73
2022/11/12 08:46:56;;;;;;;17.17;11.25;;;;;;;5.52;100.00;153919.63;4995838;28;20046;-73
2022/11/12 08:49:42;;;;;;;17.25;11.18;;;;;;;5.63;100.00;153949.06;5007870;28;20034;-74
2022/11/12 08:52:26;;;;;;;14.07;9.77;;;;;;;5.76;100.00;153979.72;5000309;28;20044;-73
2022/11/12 08:55:11;;;;;;;15.95;10.02;;;;;;;5.91;100.00;154018.09;4993197;28;20073;-74
2022/11/12 08:58:00;;;;;;;16.40;9.68;;;;;;;5.93;100.00;154021.94;5008842;28;20350;-74
2022/11/12 09:00:45;;;;;;;15.18;9.90;;;;;;;6.04;100.00;154050.13;5020459;28;20030;-74
2022/11/12 09:03:29;;;;;;;11.45;8.60;;;;;;;6.10;100.00;154065.44;4985786;28;20032;-73
2022/11/12 09:06:13;;;;;;;16.15;9.10;;;;;;;6.19;100.00;154088.47;5020878;28;20049;-73
2022/11/12 09:08:57;;;;;;;15.20;9.75;;;;;;;6.20;100.00;154091.06;5006440;28;20041;-74
2022/11/12 09:11:41;;;;;;;13.57;8.85;;;;;;;6.10;100.00;154064.19;5002296;28;20060;-74
2022/11/12 09:14:25;;;;;;;13.90;8.85;;;;;;;6.07;100.00;154057.81;4998383;28;20034;-74
2022/11/12 09:17:10;;;;;;;13.57;9.02;;;;;;;6.23;100.00;154098.75;5007375;28;20487;-74
2022/11/12 09:19:54;;;;;;;13.27;9.00;;;;;;;6.37;100.00;154133.28;5006947;28;20038;-75
2022/11/12 09:22:38;;;;;;;12.13;8.95;;;;;;;6.49;100.00;154162.69;5020627;28;20049;-73
2022/11/12 09:25:22;;;;;;;12.02;9.23;;;;;;;6.52;100.00;154170.38;5009110;28;20038;-71
2022/11/12 09:28:11;;;;;;;15.02;9.57;;;;;;;6.57;100.00;154183.19;4998947;28;20069;-71
2022/11/12 09:30:55;;;;;;;12.57;9.27;;;;;;;6.65;100.00;154201.06;5008013;28;20046;-72
2022/11/12 09:33:40;;;;;;;15.40;9.10;;;;;;;6.67;100.00;154207.50;5004571;28;20041;-72
2022/11/12 09:36:24;;;;;;;14.48;8.52;;;;;;;6.77;100.00;154231.81;5003672;28;20041;-73
2022/11/12 09:39:08;;;;;;;14.27;8.40;;;;;;;6.74;100.00;154224.13;5005614;28;20033;-73
2022/11/12 09:41:52;;;;;;;11.10;8.73;;;;;;;6.81;100.00;154242.03;4983741;28;20495;-71
2022/11/12 09:44:39;;;;;;;15.07;7.88;;;;;;;6.93;100.00;154272.78;5001321;28;20486;-72
2022/11/12 09:47:39;;;;;;;16.38;8.82;;;;;;;6.92;100.00;154270.19;5004233;28;20030;-73
2022/11/12 09:50:26;;;;;;;9.82;8.20;;;;;;;7.04;100.00;154299.63;5004177;28;20044;-73
2022/11/12 09:53:24;;;;;;;12.35;8.13;;;;;;;7.12;100.00;154318.81;5004455;28;20034;-75
2022/11/12 09:56:11;;;;;;;13.27;8.23;;;;;;;7.11;100.00;154316.28;4987263;28;20042;-73
2022/11/12 09:58:56;;;;;;;13.60;8.68;;;;;;;7.25;100.00;154352.09;4991461;28;20030;-73
2022/11/12 10:01:56;;;;;;;12.40;7.60;;;;;;;7.38;100.00;154384.09;5007255;28;20033;-74
2022/11/12 10:04:55;;;;;;;12.35;8.02;;;;;;;7.45;100.00;154400.78;5004039;28;20491;-74
2022/11/12 10:07:55;;;;;;;11.52;8.32;;;;;;;7.56;100.00;154428.94;5005890;28;20072;-74
2022/11/12 10:10:59;;;;;;;10.80;7.88;;;;;;;7.66;100.00;154454.53;4984719;28;20103;-74
2022/11/12 10:14:12;;;;;;;14.55;8.07;;;;;;;7.90;100.00;154513.47;4998875;28;20034;-73
2022/11/12 10:17:38;;;;;;;15.32;8.02;;;;;;;7.92;100.00;154519.84;5007982;28;20038;-74
2022/11/12 10:20:47;;;;;;;13.65;7.55;;;;;;;8.02;100.00;154542.91;5003849;28;20121;-75
2022/11/12 10:23:40;;;;;;;14.43;8.05;;;;;;;8.10;100.00;154564.69;4995412;28;20038;-75
2022/11/12 10:26:25;;;;;;;13.45;7.55;;;;;;;8.23;100.00;154595.41;5004191;28;20048;-74
2022/11/12 10:29:09;;;;;;;12.18;7.70;;;;;;;8.34;100.00;154623.59;5004578;28;20034;-71
2022/11/12 10:31:53;;;;;;;12.80;8.23;;;;;;;8.52;100.00;154669.78;4990706;28;20041;-73
2022/11/12 10:34:39;;;;;;;13.20;7.88;;;;;;;8.60;100.00;154687.72;4989478;28;20045;-73
2022/11/12 10:37:32;;;;;;;11.13;7.45;;;;;;;8.61;100.00;154690.25;5000948;28;20034;-73
2022/11/12 10:40:20;;;;;;;11.27;7.38;;;;;;;8.84;100.00;154747.97;4986156;28;20045;-73
2022/11/12 10:43:19;;;;;;;16.42;8.05;;;;;;;8.98;100.00;154782.53;5003429;28;20038;-73
2022/11/12 10:46:22;;;;;;;10.18;7.63;;;;;;;8.99;100.00;154785.13;5000131;28;20403;-73
2022/11/12 10:49:23;;;;;;;12.27;7.97;;;;;;;9.14;100.00;154823.56;5003466;28;20825;-73
2022/11/12 10:52:21;;;;;;;13.75;7.82;;;;;;;9.18;100.00;154832.53;5003488;28;20045;-74
2022/11/12 10:55:18;;;;;;;9.23;7.10;;;;;;;9.33;100.00;154871.00;4997245;28;20050;-72
2022/11/12 10:58:09;;;;;;;15.98;7.95;;;;;;;9.49;100.00;154910.72;4989516;28;20042;-73
2022/11/12 11:01:02;;;;;;;11.77;7.55;;;;;;;9.68;100.00;154958.16;5002696;28;20499;-75
2022/11/12 11:03:56;;;;;;;10.15;7.55;;;;;;;9.70;100.00;154963.28;4989928;28;20038;-75
2022/11/12 11:06:40;;;;;;;10.88;7.15;;;;;;;9.81;100.00;154990.22;5016841;28;20372;-75
2022/11/12 11:09:25;;;;;;;10.73;6.57;;;;;;;9.75;100.00;154977.38;5000699;28;20038;-73
2022/11/12 11:12:25;;;;;;;13.93;7.43;;;;;;;9.69;100.00;154962.00;5019972;28;20034;-73
2022/11/12 11:15:09;;;;;;;11.13;7.03;;;;;;;9.88;100.00;155008.19;5003551;28;20032;-74
2022/11/12 11:17:54;;;;;;;13.95;8.10;;;;;;;9.88;100.00;155008.19;5003957;28;20029;-73
2022/11/12 11:20:46;;;;;;;13.55;7.65;;;;;;;10.03;100.00;155046.63;4987401;28;20128;-74
2022/11/12 11:23:54;;;;;;;13.10;7.95;;;;;;;10.14;100.00;155073.59;4991833;28;20626;-74
2022/11/12 11:26:57;;;;;;;11.05;7.50;;;;;;;10.33;100.00;155121.09;5007908;28;20105;-73
2022/11/12 11:30:10;;;;;;;10.70;7.32;;;;;;;10.54;100.00;155173.69;5002863;28;20030;-73
2022/11/12 11:33:42;;;;;;;11.75;7.85;;;;;;;10.69;100.00;155212.16;5006931;28;20478;-73
2022/11/12 11:37:04;;;;;;;10.27;7.32;;;;;;;10.82;100.00;155242.97;5000270;28;20041;-74
2022/11/12 11:40:00;;;;;;;11.30;7.18;;;;;;;10.95;99.91;155276.34;5007760;28;20034;-74
2022/11/12 11:43:04;;;;;;;10.50;7.05;;;;;;;11.00;99.37;155287.88;4998058;28;20034;-74
2022/11/12 11:46:01;;;;;;;11.80;7.55;;;;;;;10.95;99.96;155275.06;5007314;28;20451;-74
2022/11/12 11:49:03;;;;;;;10.95;7.72;;;;;;;10.91;100.00;155266.06;5001226;28;20029;-74
2022/11/12 11:52:32;;;;;;;13.30;7.23;;;;;;;11.21;100.00;155341.78;5001579;28;20037;-73
2022/11/12 11:55:27;;;;;;;14.05;7.88;;;;;;;11.50;97.35;155413.66;5003318;28;20276;-73
2022/11/12 11:58:29;;;;;;;13.15;7.63;;;;;;;11.89;95.21;155511.25;4994001;28;20033;-72
2022/11/12 12:01:25;;;;;;;12.23;7.90;;;;;;;12.03;92.47;155545.94;4999890;28;20415;-74
2022/11/12 12:04:37;;;;;;;12.07;7.50;;;;;;;12.16;92.55;155578.06;5006463;28;20523;-73
2022/11/12 12:07:37;;;;;;;12.60;8.25;;;;;;;12.13;92.40;155570.34;5004889;28;21006;-73
2022/11/12 12:10:27;;;;;;;11.73;6.97;;;;;;;12.30;90.23;155612.72;5006648;28;20480;-73
2022/11/12 12:13:27;;;;;;;10.88;7.10;;;;;;;12.36;90.04;155629.44;4998271;28;20038;-74
2022/11/12 12:16:37;;;;;;;10.43;6.97;;;;;;;12.40;89.67;155639.72;5003660;28;20038;-74
2022/11/12 12:19:55;;;;;;;11.55;7.47;;;;;;;12.23;90.36;155596.06;5005241;28;20041;-74
2022/11/12 12:23:01;;;;;;;11.45;6.68;;;;;;;12.16;91.04;155578.06;4991729;28;20034;-73
2022/11/12 12:25:48;;;;;;;8.82;6.43;;;;;;;12.10;92.64;155562.66;5002396;28;20416;-75
2022/11/12 12:28:58;;;;;;;9.07;6.32;;;;;;;11.94;92.18;155524.16;5002582;28;20084;-75
2022/11/12 12:31:50;;;;;;;11.25;6.70;;;;;;;11.82;93.61;155493.25;4979065;28;20045;-73
2022/11/12 12:34:46;;;;;;;11.77;6.95;;;;;;;11.65;94.88;155452.16;5011799;28;20046;-74
2022/11/12 12:37:37;;;;;;;9.30;5.85;;;;;;;11.56;95.49;155427.78;5005364;28;20084;-75
2022/11/12 12:40:31;;;;;;;13.00;6.60;;;;;;;11.43;96.19;155395.69;5007335;28;20042;-72
2022/11/12 12:43:30;;;;;;;9.75;6.13;;;;;;;11.25;97.51;155352.06;5001744;28;20034;-74
2022/11/12 12:46:18;;;;;;;8.80;6.20;;;;;;;11.16;98.93;155327.66;5002307;28;20078;-74
2022/11/12 12:49:05;;;;;;;10.93;6.30;;;;;;;11.06;99.47;155304.56;5004740;28;20038;-75
2022/11/12 12:51:49;;;;;;;12.38;6.70;;;;;;;11.02;98.98;155293.00;5007262;28;20108;-74
2022/11/12 12:54:33;;;;;;;10.95;6.65;;;;;;;10.94;99.59;155272.47;4999121;28;20038;-74
2022/11/12 12:57:37;;;;;;;11.10;6.22;;;;;;;10.76;100.00;155227.59;4988087;28;20072;-74
2022/11/12 13:00:39;;;;;;;11.45;6.95;;;;;;;10.54;100.00;155172.41;4991964;28;20037;-74
2022/11/12 13:03:42;;;;;;;13.25;6.88;;;;;;;10.45;100.00;155151.91;5003041;28;20038;-74
2022/11/12 13:06:32;;;;;;;12.75;7.38;;;;;;;10.31;100.00;155117.22;5011385;28;20030;-73